Llano, TX

5:56 PM CDT on September 23, 2014 (GMT -0500)
Russell Ranch, Castell | Change Station
CLOSE
Current Station
Personal Weather Station
Location: Llano, TX
Elevation: 1319 ft
Nearby Weather Stations

Elev 1319 ft 30.66 °N, 98.90 °W | Updated 12 minutes ago

Partly Cloudy
Partly Cloudy
84.3 °F
Feels Like 84 °F
N
3.0
Wind Variable Wind from East
Gusts 10.0 mph

Today
High -- | Low -- °F
--% Chance of Precip.
Yesterday
High -- | Low -- °F
Precip. -- in
7:24 AM 7:30 PM
Waning Crescent, 0% visible
Pressure 30.10 in
Visibility 10.0 miles
Clouds Clear
Heat Index 84 °F
Dew Point 59 °F
Humidity 42%
Rainfall 0.00 in
Snow Depth Not available.
UV 2 out of 12
Pollen 10.00 out of 12
Air Quality Not available.
Flu Activity Not available.
METAR KAQO 232235Z AUTO 10007KT 10SM CLR 29/14 A3010 RMK AO2

More Conditions Fewer Conditions

Pressure 30.10 in
Visibility 10.0 miles
Clouds Clear
Heat Index 84 °F
Dew Point 59 °F
Humidity 42%
Rainfall 0.00 in
Snow Depth Not available.
UV 2 out of 12
Pollen 10.00 out of 12
Air Quality Not available.
Flu Activity Not available.
METAR KAQO 232235Z AUTO 10007KT 10SM CLR 29/14 A3010 RMK AO2

More Conditions Fewer Conditions

10-Day Weather Forecast

Almanac

Astronomy

Sep. 23, 2014 Rise Set
Actual Time 7:24 AM CDT 7:30 PM CDT
Civil Twilight 7:00 AM CDT 7:54 PM CDT
Nautical Twilight 6:32 AM CDT 8:22 PM CDT
Astronomical Twilight 6:04 AM CDT 8:51 PM CDT
Moon 6:50 AM CDT 7:11 PM CDT
Length of Visible Light 12h 54m
Length of Day
12h 06m
Tomorrow will be 1m 50s shorter.
Waning Crescent, 0% of the Moon is Illuminated
Today
Waning Crescent
Sep 24
New
Oct 1
First Quarter
Oct 8
Full
Oct 15
Last Quarter

Today's Extremes

State Highs State Lows

Community

WunderPhotos

Upload Photos

1,755,810 photos uploaded!

WunderBlogs® & News

Nearby

Snow Depth

Station Depth Elevation
No new snow has been reported.

Earthquake Activity

City Distance Mag. Time & Date
No recent earthquake activity has been reported nearby.
Minimum magnitude displayed is 2.5.

Coastal Water Temperatures

Place Temperature
No Stations Reporting

Nearby Weather Stations